sensor_id;sensor_type;location;lat;lon;timestamp;pressure;altitude;pressure_sealevel;temperature;humidity
40117;BME280;25829;50.228;18.936;2022-10-22T00:01:33;98411.31;;;9.37;62.23
40117;BME280;25829;50.228;18.936;2022-10-22T00:04:34;98407.47;;;9.39;62.25
40117;BME280;25829;50.228;18.936;2022-10-22T00:07:34;98408.09;;;9.42;62.26
40117;BME280;25829;50.228;18.936;2022-10-22T00:10:37;98412.34;;;9.43;62.16
40117;BME280;25829;50.228;18.936;2022-10-22T00:13:38;98406.88;;;9.44;62.12
40117;BME280;25829;50.228;18.936;2022-10-22T00:16:38;98404.84;;;9.46;62.03
40117;BME280;25829;50.228;18.936;2022-10-22T00:19:39;98409.09;;;9.47;61.93
40117;BME280;25829;50.228;18.936;2022-10-22T00:22:40;98417.63;;;9.49;62.00
40117;BME280;25829;50.228;18.936;2022-10-22T00:25:41;98422.69;;;9.51;61.91
40117;BME280;25829;50.228;18.936;2022-10-22T00:28:41;98419.25;;;9.50;61.94
40117;BME280;25829;50.228;18.936;2022-10-22T00:31:42;98409.72;;;9.49;61.82
40117;BME280;25829;50.228;18.936;2022-10-22T00:34:46;98416.19;;;9.47;61.82
40117;BME280;25829;50.228;18.936;2022-10-22T00:37:46;98410.53;;;9.43;61.52
40117;BME280;25829;50.228;18.936;2022-10-22T00:40:47;98404.63;;;9.41;61.52
40117;BME280;25829;50.228;18.936;2022-10-22T00:43:57;98403.84;;;9.40;61.98
40117;BME280;25829;50.228;18.936;2022-10-22T00:46:58;98399.78;;;9.38;61.76
40117;BME280;25829;50.228;18.936;2022-10-22T00:49:59;98392.09;;;9.36;61.68
40117;BME280;25829;50.228;18.936;2022-10-22T00:53:02;98391.47;;;9.34;61.78
40117;BME280;25829;50.228;18.936;2022-10-22T00:56:04;98384.56;;;9.33;61.69
40117;BME280;25829;50.228;18.936;2022-10-22T00:59:06;98389.00;;;9.33;61.64
40117;BME280;25829;50.228;18.936;2022-10-22T01:02:07;98380.72;;;9.29;61.78
40117;BME280;25829;50.228;18.936;2022-10-22T01:05:08;98387.00;;;9.28;61.84
40117;BME280;25829;50.228;18.936;2022-10-22T01:08:17;98388.59;;;9.29;61.89
40117;BME280;25829;50.228;18.936;2022-10-22T01:17:59;98381.91;;;9.20;61.84
40117;BME280;25829;50.228;18.936;2022-10-22T01:30:48;98378.03;;;9.09;61.99
40117;BME280;25829;50.228;18.936;2022-10-22T01:33:53;98380.25;;;9.06;62.25
40117;BME280;25829;50.228;18.936;2022-10-22T01:36:54;98370.13;;;9.03;62.26
40117;BME280;25829;50.228;18.936;2022-10-22T01:39:58;98382.47;;;9.02;62.40
40117;BME280;25829;50.228;18.936;2022-10-22T01:43:03;98375.41;;;9.03;62.26
40117;BME280;25829;50.228;18.936;2022-10-22T01:46:05;98372.16;;;9.01;62.05
40117;BME280;25829;50.228;18.936;2022-10-22T01:49:16;98362.63;;;9.00;62.32
40117;BME280;25829;50.228;18.936;2022-10-22T01:56:03;98367.09;;;8.99;62.41
40117;BME280;25829;50.228;18.936;2022-10-22T01:59:21;98355.75;;;8.99;62.75
40117;BME280;25829;50.228;18.936;2022-10-22T02:02:40;98367.91;;;9.00;62.80
40117;BME280;25829;50.228;18.936;2022-10-22T02:05:48;98354.16;;;8.98;62.57
40117;BME280;25829;50.228;18.936;2022-10-22T02:08:51;98357.78;;;8.97;62.66
40117;BME280;25829;50.228;18.936;2022-10-22T02:11:53;98363.88;;;8.97;62.75
40117;BME280;25829;50.228;18.936;2022-10-22T02:14:55;98370.13;;;8.96;62.63
40117;BME280;25829;50.228;18.936;2022-10-22T02:17:57;98361.63;;;8.94;62.54
40117;BME280;25829;50.228;18.936;2022-10-22T02:20:59;98354.31;;;8.89;62.87
40117;BME280;25829;50.228;18.936;2022-10-22T02:24:01;98353.09;;;8.85;62.99
40117;BME280;25829;50.228;18.936;2022-10-22T02:30:10;98359.19;;;8.79;63.00
40117;BME280;25829;50.228;18.936;2022-10-22T02:33:16;98351.88;;;8.81;63.13
40117;BME280;25829;50.228;18.936;2022-10-22T02:36:19;98346.03;;;8.79;63.38
40117;BME280;25829;50.228;18.936;2022-10-22T02:39:20;98347.81;;;8.79;63.42
40117;BME280;25829;50.228;18.936;2022-10-22T02:42:25;98356.72;;;8.78;63.44
40117;BME280;25829;50.228;18.936;2022-10-22T02:45:27;98370.09;;;8.76;63.41
40117;BME280;25829;50.228;18.936;2022-10-22T02:48:29;98383.00;;;8.71;63.50
40117;BME280;25829;50.228;18.936;2022-10-22T02:51:29;98384.00;;;8.63;63.79
40117;BME280;25829;50.228;18.936;2022-10-22T02:54:30;98370.81;;;8.57;63.91
40117;BME280;25829;50.228;18.936;2022-10-22T02:57:31;98378.28;;;8.53;63.89
40117;BME280;25829;50.228;18.936;2022-10-22T03:00:32;98377.44;;;8.46;64.12
40117;BME280;25829;50.228;18.936;2022-10-22T03:03:33;98384.50;;;8.39;64.35
40117;BME280;25829;50.228;18.936;2022-10-22T03:06:33;98389.34;;;8.35;64.29
40117;BME280;25829;50.228;18.936;2022-10-22T03:09:34;98392.13;;;8.34;64.51
40117;BME280;25829;50.228;18.936;2022-10-22T03:12:35;98404.31;;;8.35;64.59
40117;BME280;25829;50.228;18.936;2022-10-22T03:15:36;98396.03;;;8.38;64.49
40117;BME280;25829;50.228;18.936;2022-10-22T03:18:36;98396.84;;;8.38;64.54
40117;BME280;25829;50.228;18.936;2022-10-22T03:21:50;98385.94;;;8.41;64.26
40117;BME280;25829;50.228;18.936;2022-10-22T03:24:56;98384.13;;;8.42;64.26
40117;BME280;25829;50.228;18.936;2022-10-22T03:28:00;98373.78;;;8.40;64.45
40117;BME280;25829;50.228;18.936;2022-10-22T03:31:02;98368.53;;;8.40;64.49
40117;BME280;25829;50.228;18.936;2022-10-22T03:34:03;98349.72;;;8.43;64.37
40117;BME280;25829;50.228;18.936;2022-10-22T03:37:03;98350.94;;;8.48;64.43
40117;BME280;25829;50.228;18.936;2022-10-22T03:40:05;98341.06;;;8.50;64.57
40117;BME280;25829;50.228;18.936;2022-10-22T03:43:07;98348.56;;;8.53;64.67
40117;BME280;25829;50.228;18.936;2022-10-22T03:46:07;98350.38;;;8.52;64.59
40117;BME280;25829;50.228;18.936;2022-10-22T03:49:08;98357.47;;;8.52;64.41
40117;BME280;25829;50.228;18.936;2022-10-22T03:52:13;98363.31;;;8.54;64.71
40117;BME280;25829;50.228;18.936;2022-10-22T03:55:14;98351.78;;;8.55;64.42
40117;BME280;25829;50.228;18.936;2022-10-22T03:58:14;98360.31;;;8.57;64.35
40117;BME280;25829;50.228;18.936;2022-10-22T04:01:15;98362.94;;;8.57;64.36
40117;BME280;25829;50.228;18.936;2022-10-22T04:04:16;98365.56;;;8.57;64.23
40117;BME280;25829;50.228;18.936;2022-10-22T04:07:17;98376.88;;;8.57;64.28
40117;BME280;25829;50.228;18.936;2022-10-22T04:10:17;98372.44;;;8.58;64.15
40117;BME280;25829;50.228;18.936;2022-10-22T04:13:18;98384.59;;;8.59;64.71
40117;BME280;25829;50.228;18.936;2022-10-22T04:16:20;98387.41;;;8.57;64.47
40117;BME280;25829;50.228;18.936;2022-10-22T04:19:21;98394.09;;;8.60;64.74
40117;BME280;25829;50.228;18.936;2022-10-22T04:22:22;98380.94;;;8.60;64.27
40117;BME280;25829;50.228;18.936;2022-10-22T04:25:23;98367.41;;;8.63;64.67
40117;BME280;25829;50.228;18.936;2022-10-22T04:28:24;98359.13;;;8.66;64.40
40117;BME280;25829;50.228;18.936;2022-10-22T04:31:25;98357.72;;;8.70;64.14
40117;BME280;25829;50.228;18.936;2022-10-22T04:34:27;98356.53;;;8.73;64.39
40117;BME280;25829;50.228;18.936;2022-10-22T04:37:28;98344.34;;;8.72;64.02
40117;BME280;25829;50.228;18.936;2022-10-22T04:40:29;98337.28;;;8.72;64.12
40117;BME280;25829;50.228;18.936;2022-10-22T04:43:29;98330.00;;;8.67;63.99
40117;BME280;25829;50.228;18.936;2022-10-22T04:46:32;98328.38;;;8.66;64.13
40117;BME280;25829;50.228;18.936;2022-10-22T04:49:33;98316.44;;;8.64;64.24
40117;BME280;25829;50.228;18.936;2022-10-22T04:52:34;98313.78;;;8.64;64.31
40117;BME280;25829;50.228;18.936;2022-10-22T04:55:34;98311.16;;;8.64;64.02
40117;BME280;25829;50.228;18.936;2022-10-22T04:58:35;98315.22;;;8.66;64.27
40117;BME280;25829;50.228;18.936;2022-10-22T05:01:39;98317.66;;;8.68;64.06
40117;BME280;25829;50.228;18.936;2022-10-22T05:04:42;98318.88;;;8.65;64.07
40117;BME280;25829;50.228;18.936;2022-10-22T05:07:43;98323.31;;;8.65;64.31
40117;BME280;25829;50.228;18.936;2022-10-22T05:10:44;98329.56;;;8.64;64.15
40117;BME280;25829;50.228;18.936;2022-10-22T05:13:45;98329.78;;;8.62;64.08
40117;BME280;25829;50.228;18.936;2022-10-22T05:16:46;98329.97;;;8.61;64.39
40117;BME280;25829;50.228;18.936;2022-10-22T05:19:47;98346.75;;;8.60;64.33
40117;BME280;25829;50.228;18.936;2022-10-22T05:22:48;98355.84;;;8.57;64.23
40117;BME280;25829;50.228;18.936;2022-10-22T05:25:49;98363.16;;;8.55;64.53
40117;BME280;25829;50.228;18.936;2022-10-22T05:28:49;98367.16;;;8.51;64.77
40117;BME280;25829;50.228;18.936;2022-10-22T05:31:50;98365.75;;;8.49;64.76
40117;BME280;25829;50.228;18.936;2022-10-22T05:34:52;98364.09;;;8.48;64.80
40117;BME280;25829;50.228;18.936;2022-10-22T05:37:53;98353.00;;;8.45;65.06
40117;BME280;25829;50.228;18.936;2022-10-22T05:41:05;98346.91;;;8.45;64.92
40117;BME280;25829;50.228;18.936;2022-10-22T05:44:06;98340.63;;;8.39;64.95
40117;BME280;25829;50.228;18.936;2022-10-22T05:47:07;98344.66;;;8.35;65.33
40117;BME280;25829;50.228;18.936;2022-10-22T05:50:09;98366.88;;;8.33;65.26
40117;BME280;25829;50.228;18.936;2022-10-22T05:53:10;98381.41;;;8.29;65.45
40117;BME280;25829;50.228;18.936;2022-10-22T05:56:14;98367.25;;;8.30;65.35
40117;BME280;25829;50.228;18.936;2022-10-22T05:59:15;98353.56;;;8.34;65.46
40117;BME280;25829;50.228;18.936;2022-10-22T06:02:15;98363.50;;;8.45;65.23
40117;BME280;25829;50.228;18.936;2022-10-22T06:05:16;98362.09;;;8.50;64.99
40117;BME280;25829;50.228;18.936;2022-10-22T06:08:17;98384.56;;;8.52;65.27
40117;BME280;25829;50.228;18.936;2022-10-22T06:11:19;98383.16;;;8.56;65.36
40117;BME280;25829;50.228;18.936;2022-10-22T06:14:20;98392.91;;;8.62;65.14
40117;BME280;25829;50.228;18.936;2022-10-22T06:17:21;98391.09;;;8.69;65.03
40117;BME280;25829;50.228;18.936;2022-10-22T06:20:22;98390.13;;;8.77;64.72
40117;BME280;25829;50.228;18.936;2022-10-22T06:23:22;98396.22;;;8.84;64.77
40117;BME280;25829;50.228;18.936;2022-10-22T06:26:23;98400.47;;;8.92;64.62
40117;BME280;25829;50.228;18.936;2022-10-22T06:29:24;98394.84;;;9.02;64.11
40117;BME280;25829;50.228;18.936;2022-10-22T06:32:25;98397.28;;;9.10;64.07
40117;BME280;25829;50.228;18.936;2022-10-22T06:35:25;98412.09;;;9.18;63.89
40117;BME280;25829;50.228;18.936;2022-10-22T06:38:26;98414.53;;;9.26;63.84
40117;BME280;25829;50.228;18.936;2022-10-22T06:41:27;98410.06;;;9.33;63.77
40117;BME280;25829;50.228;18.936;2022-10-22T06:44:27;98408.91;;;9.42;63.85
40117;BME280;25829;50.228;18.936;2022-10-22T06:47:28;98414.38;;;9.54;63.65
40117;BME280;25829;50.228;18.936;2022-10-22T06:50:32;98416.63;;;9.63;63.55
40117;BME280;25829;50.228;18.936;2022-10-22T06:53:33;98411.53;;;9.75;63.47
40117;BME280;25829;50.228;18.936;2022-10-22T06:56:34;98421.69;;;9.85;63.44
40117;BME280;25829;50.228;18.936;2022-10-22T06:59:35;98414.19;;;9.95;63.31
40117;BME280;25829;50.228;18.936;2022-10-22T07:02:36;98419.03;;;10.05;63.11
40117;BME280;25829;50.228;18.936;2022-10-22T07:05:37;98425.69;;;10.14;63.04
40117;BME280;25829;50.228;18.936;2022-10-22T07:08:38;98432.19;;;10.18;62.77
40117;BME280;25829;50.228;18.936;2022-10-22T07:11:41;98437.47;;;10.25;62.77
40117;BME280;25829;50.228;18.936;2022-10-22T07:14:42;98413.69;;;10.31;62.54
40117;BME280;25829;50.228;18.936;2022-10-22T07:17:43;98411.25;;;10.37;62.42
40117;BME280;25829;50.228;18.936;2022-10-22T07:20:46;98416.28;;;10.45;62.51
40117;BME280;25829;50.228;18.936;2022-10-22T07:23:47;98411.63;;;10.53;62.47
40117;BME280;25829;50.228;18.936;2022-10-22T07:26:48;98423.97;;;10.59;62.30
40117;BME280;25829;50.228;18.936;2022-10-22T07:29:49;98417.84;;;10.66;62.18
40117;BME280;25829;50.228;18.936;2022-10-22T07:32:49;98420.47;;;10.72;62.17
40117;BME280;25829;50.228;18.936;2022-10-22T07:35:50;98414.00;;;10.75;62.05
40117;BME280;25829;50.228;18.936;2022-10-22T07:38:56;98424.13;;;10.78;62.13
40117;BME280;25829;50.228;18.936;2022-10-22T07:41:57;98409.50;;;10.82;62.23
40117;BME280;25829;50.228;18.936;2022-10-22T07:44:58;98411.06;;;10.90;62.02
40117;BME280;25829;50.228;18.936;2022-10-22T07:47:58;98425.88;;;10.97;62.05
40117;BME280;25829;50.228;18.936;2022-10-22T07:51:00;98439.47;;;11.01;61.82
40117;BME280;25829;50.228;18.936;2022-10-22T07:54:01;98440.66;;;11.05;61.73
40117;BME280;25829;50.228;18.936;2022-10-22T07:57:02;98428.66;;;11.09;61.81
40117;BME280;25829;50.228;18.936;2022-10-22T08:00:04;98424.16;;;11.16;61.69
40117;BME280;25829;50.228;18.936;2022-10-22T08:03:13;98414.56;;;11.22;61.80
40117;BME280;25829;50.228;18.936;2022-10-22T08:06:14;98403.13;;;11.28;61.76
40117;BME280;25829;50.228;18.936;2022-10-22T08:09:15;98395.41;;;11.33;61.74
40117;BME280;25829;50.228;18.936;2022-10-22T08:12:16;98410.97;;;11.41;61.38
40117;BME280;25829;50.228;18.936;2022-10-22T08:15:17;98418.06;;;11.47;61.35
40117;BME280;25829;50.228;18.936;2022-10-22T08:18:17;98422.91;;;11.50;61.48
40117;BME280;25829;50.228;18.936;2022-10-22T08:21:18;98418.59;;;11.56;61.21
40117;BME280;25829;50.228;18.936;2022-10-22T08:24:19;98423.44;;;11.59;61.10
40117;BME280;25829;50.228;18.936;2022-10-22T08:27:20;98419.56;;;11.62;61.06
40117;BME280;25829;50.228;18.936;2022-10-22T08:30:20;98428.31;;;11.62;60.98
40117;BME280;25829;50.228;18.936;2022-10-22T08:33:21;98423.03;;;11.62;61.10
40117;BME280;25829;50.228;18.936;2022-10-22T08:36:22;98422.22;;;11.62;61.14
40117;BME280;25829;50.228;18.936;2022-10-22T08:39:23;98437.03;;;11.63;60.76
40117;BME280;25829;50.228;18.936;2022-10-22T08:42:42;98448.22;;;11.65;60.97
40117;BME280;25829;50.228;18.936;2022-10-22T08:46:06;98444.72;;;11.71;61.32
40117;BME280;25829;50.228;18.936;2022-10-22T08:49:17;98461.97;;;11.73;61.30
40117;BME280;25829;50.228;18.936;2022-10-22T08:52:18;98455.66;;;11.74;61.50
40117;BME280;25829;50.228;18.936;2022-10-22T08:55:22;98454.44;;;11.77;61.26
40117;BME280;25829;50.228;18.936;2022-10-22T08:58:51;98446.28;;;11.78;60.99
40117;BME280;25829;50.228;18.936;2022-10-22T09:01:53;98445.25;;;11.80;61.10
40117;BME280;25829;50.228;18.936;2022-10-22T09:05:18;98438.66;;;11.89;61.05
40117;BME280;25829;50.228;18.936;2022-10-22T09:08:22;98436.78;;;11.96;61.30
40117;BME280;25829;50.228;18.936;2022-10-22T09:11:30;98433.06;;;12.04;61.08
40117;BME280;25829;50.228;18.936;2022-10-22T09:14:31;98446.91;;;12.06;60.85
40117;BME280;25829;50.228;18.936;2022-10-22T09:17:43;98451.53;;;12.10;60.82
40117;BME280;25829;50.228;18.936;2022-10-22T09:20:52;98445.66;;;12.08;60.51
40117;BME280;25829;50.228;18.936;2022-10-22T09:23:59;98448.88;;;12.10;60.83
40117;BME280;25829;50.228;18.936;2022-10-22T09:27:26;98455.16;;;12.16;60.73
40117;BME280;25829;50.228;18.936;2022-10-22T09:30:29;98464.25;;;12.20;61.20
40117;BME280;25829;50.228;18.936;2022-10-22T09:33:30;98465.00;;;12.27;60.85
40117;BME280;25829;50.228;18.936;2022-10-22T09:36:33;98468.63;;;12.33;60.79
40117;BME280;25829;50.228;18.936;2022-10-22T09:39:50;98470.66;;;12.31;60.55
40117;BME280;25829;50.228;18.936;2022-10-22T09:42:51;98460.69;;;12.33;60.69
40117;BME280;25829;50.228;18.936;2022-10-22T09:45:57;98451.72;;;12.34;60.48
40117;BME280;25829;50.228;18.936;2022-10-22T09:49:24;98452.09;;;12.37;60.35
40117;BME280;25829;50.228;18.936;2022-10-22T09:52:29;98461.88;;;12.37;60.68
40117;BME280;25829;50.228;18.936;2022-10-22T09:55:32;98466.56;;;12.35;60.87
40117;BME280;25829;50.228;18.936;2022-10-22T09:58:44;98470.81;;;12.36;60.67
40117;BME280;25829;50.228;18.936;2022-10-22T10:01:45;98474.72;;;12.33;60.50
40117;BME280;25829;50.228;18.936;2022-10-22T10:04:53;98459.06;;;12.32;60.36
40117;BME280;25829;50.228;18.936;2022-10-22T10:07:54;98455.84;;;12.30;60.84
40117;BME280;25829;50.228;18.936;2022-10-22T10:11:25;98462.28;;;12.34;60.59
40117;BME280;25829;50.228;18.936;2022-10-22T10:21:48;98466.78;;;12.33;60.89
40117;BME280;25829;50.228;18.936;2022-10-22T10:38:07;98441.56;;;12.12;60.73
40117;BME280;25829;50.228;18.936;2022-10-22T10:41:42;98443.16;;;12.13;61.00
40117;BME280;25829;50.228;18.936;2022-10-22T10:48:04;98442.28;;;12.19;61.02
40117;BME280;25829;50.228;18.936;2022-10-22T11:11:37;98425.09;;;12.10;62.30
40117;BME280;25829;50.228;18.936;2022-10-22T11:14:58;98426.06;;;12.16;62.16
40117;BME280;25829;50.228;18.936;2022-10-22T11:21:56;98424.59;;;12.20;62.13
40117;BME280;25829;50.228;18.936;2022-10-22T11:24:57;98418.69;;;12.18;62.19
40117;BME280;25829;50.228;18.936;2022-10-22T11:28:04;98420.16;;;12.14;62.44
40117;BME280;25829;50.228;18.936;2022-10-22T11:31:15;98416.13;;;12.11;62.59
40117;BME280;25829;50.228;18.936;2022-10-22T11:34:37;98418.63;;;12.06;62.53
40117;BME280;25829;50.228;18.936;2022-10-22T11:37:41;98414.41;;;11.98;63.03
40117;BME280;25829;50.228;18.936;2022-10-22T11:41:11;98410.56;;;11.94;62.98
40117;BME280;25829;50.228;18.936;2022-10-22T11:44:20;98413.22;;;11.94;63.17
40117;BME280;25829;50.228;18.936;2022-10-22T11:48:13;98415.03;;;11.94;63.43
40117;BME280;25829;50.228;18.936;2022-10-22T11:53:56;98429.50;;;11.91;63.92
40117;BME280;25829;50.228;18.936;2022-10-22T12:00:45;98419.56;;;11.87;64.49
40117;BME280;25829;50.228;18.936;2022-10-22T12:07:00;98413.84;;;11.90;64.62
40117;BME280;25829;50.228;18.936;2022-10-22T12:10:05;98412.25;;;11.89;64.66
40117;BME280;25829;50.228;18.936;2022-10-22T12:17:03;98429.38;;;11.80;65.01
40117;BME280;25829;50.228;18.936;2022-10-22T12:20:12;98407.13;;;11.69;65.19
40117;BME280;25829;50.228;18.936;2022-10-22T12:23:14;98402.50;;;11.64;64.78
40117;BME280;25829;50.228;18.936;2022-10-22T12:26:29;98414.66;;;11.65;65.17
40117;BME280;25829;50.228;18.936;2022-10-22T12:29:31;98415.09;;;11.62;65.35
40117;BME280;25829;50.228;18.936;2022-10-22T12:32:35;98421.84;;;11.58;64.96
40117;BME280;25829;50.228;18.936;2022-10-22T12:35:43;98418.97;;;11.60;65.09
40117;BME280;25829;50.228;18.936;2022-10-22T12:38:45;98413.09;;;11.58;65.23
40117;BME280;25829;50.228;18.936;2022-10-22T12:41:46;98404.81;;;11.54;65.40
40117;BME280;25829;50.228;18.936;2022-10-22T12:44:47;98405.44;;;11.49;65.17
40117;BME280;25829;50.228;18.936;2022-10-22T12:48:02;98408.09;;;11.49;65.43
40117;BME280;25829;50.228;18.936;2022-10-22T12:51:04;98401.59;;;11.45;65.72
40117;BME280;25829;50.228;18.936;2022-10-22T12:54:17;98397.16;;;11.46;65.85
40117;BME280;25829;50.228;18.936;2022-10-22T12:57:20;98386.34;;;11.47;65.88
40117;BME280;25829;50.228;18.936;2022-10-22T13:00:32;98388.19;;;11.47;66.11
40117;BME280;25829;50.228;18.936;2022-10-22T13:03:49;98383.34;;;11.44;65.82
40117;BME280;25829;50.228;18.936;2022-10-22T13:07:03;98381.91;;;11.41;65.90
40117;BME280;25829;50.228;18.936;2022-10-22T13:10:25;98386.59;;;11.46;66.17
40117;BME280;25829;50.228;18.936;2022-10-22T13:13:31;98379.47;;;11.46;65.97
40117;BME280;25829;50.228;18.936;2022-10-22T13:16:32;98389.81;;;11.48;65.83
40117;BME280;25829;50.228;18.936;2022-10-22T13:23:04;98390.78;;;11.53;65.83
40117;BME280;25829;50.228;18.936;2022-10-22T13:26:16;98386.31;;;11.54;65.96
40117;BME280;25829;50.228;18.936;2022-10-22T13:29:19;98392.81;;;11.51;65.97
40117;BME280;25829;50.228;18.936;2022-10-22T13:32:29;98401.56;;;11.52;66.27
40117;BME280;25829;50.228;18.936;2022-10-22T13:35:33;98405.66;;;11.48;67.14
40117;BME280;25829;50.228;18.936;2022-10-22T13:38:41;98403.47;;;11.38;67.97
40117;BME280;25829;50.228;18.936;2022-10-22T13:41:42;98404.78;;;11.29;68.50
40117;BME280;25829;50.228;18.936;2022-10-22T13:44:43;98400.13;;;11.24;68.68
40117;BME280;25829;50.228;18.936;2022-10-22T13:47:47;98390.81;;;11.22;69.34
40117;BME280;25829;50.228;18.936;2022-10-22T13:50:49;98406.03;;;11.20;69.62
40117;BME280;25829;50.228;18.936;2022-10-22T13:53:51;98398.34;;;11.18;69.72
40117;BME280;25829;50.228;18.936;2022-10-22T13:56:52;98397.75;;;11.16;70.02
40117;BME280;25829;50.228;18.936;2022-10-22T13:59:53;98396.13;;;11.15;70.30
40117;BME280;25829;50.228;18.936;2022-10-22T14:02:57;98400.16;;;11.18;70.62
40117;BME280;25829;50.228;18.936;2022-10-22T14:05:58;98413.16;;;11.19;70.60
40117;BME280;25829;50.228;18.936;2022-10-22T14:09:05;98418.03;;;11.22;70.88
40117;BME280;25829;50.228;18.936;2022-10-22T14:12:15;98407.28;;;11.17;70.91
40117;BME280;25829;50.228;18.936;2022-10-22T14:15:17;98416.88;;;11.12;71.29
40117;BME280;25829;50.228;18.936;2022-10-22T14:18:24;98416.88;;;11.12;71.73
40117;BME280;25829;50.228;18.936;2022-10-22T14:21:29;98412.41;;;11.12;71.70
40117;BME280;25829;50.228;18.936;2022-10-22T14:24:32;98419.75;;;11.03;71.88
40117;BME280;25829;50.228;18.936;2022-10-22T14:27:33;98404.94;;;11.02;71.93
40117;BME280;25829;50.228;18.936;2022-10-22T14:30:34;98411.25;;;11.01;72.03
40117;BME280;25829;50.228;18.936;2022-10-22T14:33:34;98420.78;;;10.96;72.32
40117;BME280;25829;50.228;18.936;2022-10-22T14:36:35;98433.59;;;10.92;72.45
40117;BME280;25829;50.228;18.936;2022-10-22T14:39:36;98428.09;;;10.94;72.58
40117;BME280;25829;50.228;18.936;2022-10-22T14:42:42;98424.47;;;10.95;72.71
40117;BME280;25829;50.228;18.936;2022-10-22T14:45:43;98424.47;;;10.95;72.70
40117;BME280;25829;50.228;18.936;2022-10-22T14:48:44;98422.81;;;10.94;72.63
40117;BME280;25829;50.228;18.936;2022-10-22T14:51:44;98419.38;;;10.93;72.72
40117;BME280;25829;50.228;18.936;2022-10-22T14:54:45;98414.13;;;10.87;73.03
40117;BME280;25829;50.228;18.936;2022-10-22T14:57:48;98416.59;;;10.81;73.10
40117;BME280;25829;50.228;18.936;2022-10-22T15:00:50;98416.00;;;10.79;73.11
40117;BME280;25829;50.228;18.936;2022-10-22T15:03:51;98416.63;;;10.75;73.42
40117;BME280;25829;50.228;18.936;2022-10-22T15:06:52;98410.53;;;10.68;73.55
40117;BME280;25829;50.228;18.936;2022-10-22T15:09:55;98413.81;;;10.63;73.66
40117;BME280;25829;50.228;18.936;2022-10-22T15:12:56;98413.59;;;10.65;73.73
40117;BME280;25829;50.228;18.936;2022-10-22T15:15:57;98420.09;;;10.62;73.66
40117;BME280;25829;50.228;18.936;2022-10-22T15:18:58;98426.16;;;10.63;73.65
40117;BME280;25829;50.228;18.936;2022-10-22T15:22:00;98429.22;;;10.66;73.71
40117;BME280;25829;50.228;18.936;2022-10-22T15:25:05;98423.31;;;10.71;73.41
40117;BME280;25829;50.228;18.936;2022-10-22T15:28:06;98424.34;;;10.70;73.62
40117;BME280;25829;50.228;18.936;2022-10-22T15:31:10;98431.03;;;10.66;73.50
40117;BME280;25829;50.228;18.936;2022-10-22T15:34:12;98436.72;;;10.63;73.94
40117;BME280;25829;50.228;18.936;2022-10-22T15:37:12;98444.44;;;10.64;73.69
40117;BME280;25829;50.228;18.936;2022-10-22T15:40:13;98450.34;;;10.66;73.69
40117;BME280;25829;50.228;18.936;2022-10-22T15:43:14;98458.66;;;10.70;73.92
40117;BME280;25829;50.228;18.936;2022-10-22T15:46:17;98455.56;;;10.73;73.74
40117;BME280;25829;50.228;18.936;2022-10-22T15:49:18;98462.28;;;10.75;73.49
40117;BME280;25829;50.228;18.936;2022-10-22T15:52:19;98458.44;;;10.78;73.62
40117;BME280;25829;50.228;18.936;2022-10-22T15:55:23;98461.66;;;10.80;73.82
40117;BME280;25829;50.228;18.936;2022-10-22T15:58:23;98469.56;;;10.80;73.54
40117;BME280;25829;50.228;18.936;2022-10-22T16:01:25;98462.50;;;10.80;73.70
40117;BME280;25829;50.228;18.936;2022-10-22T16:04:26;98455.00;;;10.77;73.61
40117;BME280;25829;50.228;18.936;2022-10-22T16:07:28;98471.81;;;10.76;73.56
40117;BME280;25829;50.228;18.936;2022-10-22T16:10:29;98476.09;;;10.77;73.59
40117;BME280;25829;50.228;18.936;2022-10-22T16:13:30;98470.81;;;10.77;73.89
40117;BME280;25829;50.228;18.936;2022-10-22T16:16:33;98484.03;;;10.77;73.93
40117;BME280;25829;50.228;18.936;2022-10-22T16:19:34;98483.78;;;10.79;73.88
40117;BME280;25829;50.228;18.936;2022-10-22T16:22:34;98470.59;;;10.72;73.88
40117;BME280;25829;50.228;18.936;2022-10-22T16:25:42;98479.16;;;10.61;74.17
40117;BME280;25829;50.228;18.936;2022-10-22T16:28:43;98491.72;;;10.59;74.38
40117;BME280;25829;50.228;18.936;2022-10-22T16:31:44;98487.28;;;10.59;74.34
40117;BME280;25829;50.228;18.936;2022-10-22T16:34:45;98482.00;;;10.59;74.42
40117;BME280;25829;50.228;18.936;2022-10-22T16:37:46;98483.25;;;10.50;74.83
40117;BME280;25829;50.228;18.936;2022-10-22T16:40:46;98495.81;;;10.42;74.94
40117;BME280;25829;50.228;18.936;2022-10-22T16:43:49;98516.34;;;10.40;75.05
40117;BME280;25829;50.228;18.936;2022-10-22T16:46:50;98524.03;;;10.41;75.12
40117;BME280;25829;50.228;18.936;2022-10-22T16:49:51;98526.06;;;10.46;75.13
40117;BME280;25829;50.228;18.936;2022-10-22T16:52:52;98536.81;;;10.51;75.12
40117;BME280;25829;50.228;18.936;2022-10-22T16:55:52;98533.75;;;10.54;75.15
40117;BME280;25829;50.228;18.936;2022-10-22T16:58:55;98532.34;;;10.51;74.90
40117;BME280;25829;50.228;18.936;2022-10-22T17:01:56;98539.44;;;10.51;75.19
40117;BME280;25829;50.228;18.936;2022-10-22T17:04:57;98546.16;;;10.53;74.99
40117;BME280;25829;50.228;18.936;2022-10-22T17:07:57;98548.97;;;10.52;75.32
40117;BME280;25829;50.228;18.936;2022-10-22T17:11:07;98551.41;;;10.53;75.09
40117;BME280;25829;50.228;18.936;2022-10-22T17:14:08;98552.63;;;10.57;75.23
40117;BME280;25829;50.228;18.936;2022-10-22T17:17:09;98548.56;;;10.62;75.33
40117;BME280;25829;50.228;18.936;2022-10-22T17:20:10;98562.16;;;10.65;74.95
40117;BME280;25829;50.228;18.936;2022-10-22T17:23:11;98555.03;;;10.66;74.85
40117;BME280;25829;50.228;18.936;2022-10-22T17:26:17;98546.72;;;10.69;75.00
40117;BME280;25829;50.228;18.936;2022-10-22T17:29:18;98555.66;;;10.68;75.01
40117;BME280;25829;50.228;18.936;2022-10-22T17:32:21;98557.28;;;10.69;75.02
40117;BME280;25829;50.228;18.936;2022-10-22T17:35:22;98557.28;;;10.69;74.98